Time;durP1;ratioP1;P1;durP2;ratioP2;P2;SDS_P1;SDS_P2;PMS_P1;PMS_P2;Temp;Humidity;BMP_temperature;BMP_pressure;BME280_temperature;BME280_humidity;BME280_pressure;Samples;Min_cycle;Max_cycle;Signal;HPM_P1;HPM_P2
2021/12/23 00:01:03;;;;;;;70.07;46.03;;;20.60;96.60;;;;;;4178072;28;20055;-69
2021/12/23 00:03:08;;;;;;;84.10;43.58;;;20.60;96.50;;;;;;4179421;28;20044;-67
2021/12/23 00:05:13;;;;;;;75.55;41.58;;;20.70;96.40;;;;;;4179733;28;20466;-69
2021/12/23 00:07:17;;;;;;;78.85;39.55;;;20.70;96.60;;;;;;4181541;28;20041;-68
2021/12/23 00:09:28;;;;;;;75.47;40.65;;;20.70;96.70;;;;;;4184265;28;20041;-70
2021/12/23 00:11:33;;;;;;;70.03;42.80;;;20.70;96.70;;;;;;4179476;28;20395;-70
2021/12/23 00:13:40;;;;;;;70.90;41.33;;;20.70;97.00;;;;;;4179982;28;20038;-70
2021/12/23 00:18:03;;;;;;;62.25;40.67;;;20.60;97.60;;;;;;4187406;28;20055;-68
2021/12/23 00:24:29;;;;;;;69.28;45.38;;;20.60;97.50;;;;;;4171485;28;20048;-69
2021/12/23 00:26:34;;;;;;;72.18;45.70;;;20.60;97.90;;;;;;4186203;28;20107;-69
2021/12/23 00:28:39;;;;;;;69.40;48.05;;;20.50;98.20;;;;;;4177883;28;20056;-70
2021/12/23 00:30:43;;;;;;;75.78;46.78;;;20.50;97.90;;;;;;4176615;28;20049;-68
2021/12/23 00:32:49;;;;;;;75.32;46.60;;;20.70;97.70;;;;;;4195234;28;20498;-70
2021/12/23 00:34:53;;;;;;;70.72;48.42;;;20.90;97.40;;;;;;4192265;28;20037;-68
2021/12/23 00:36:59;;;;;;;70.20;48.15;;;21.00;97.10;;;;;;4194867;28;20036;-69
2021/12/23 00:39:06;;;;;;;82.28;51.13;;;21.10;97.00;;;;;;4195105;28;20052;-68
2021/12/23 00:41:13;;;;;;;64.63;47.08;;;21.20;96.90;;;;;;4173509;28;20533;-69
2021/12/23 00:43:18;;;;;;;77.60;48.60;;;21.10;97.10;;;;;;4201614;28;20036;-68
2021/12/23 00:45:22;;;;;;;69.38;51.55;;;21.00;97.20;;;;;;4189422;28;20507;-70
2021/12/23 00:47:27;;;;;;;67.93;50.38;;;20.90;97.60;;;;;;4194718;28;20401;-69
2021/12/23 00:49:31;;;;;;;74.47;51.60;;;21.00;97.60;;;;;;4178588;28;20053;-68
2021/12/23 00:51:36;;;;;;;73.10;49.30;;;20.80;98.00;;;;;;4177226;28;20060;-69
2021/12/23 00:53:41;;;;;;;66.10;47.35;;;20.70;98.20;;;;;;4186825;28;20045;-68
2021/12/23 00:55:53;;;;;;;75.72;48.50;;;20.70;98.30;;;;;;4177710;28;20131;-68
2021/12/23 00:57:59;;;;;;;62.90;45.13;;;20.80;98.20;;;;;;4186949;28;20107;-68
2021/12/23 01:00:06;;;;;;;65.70;44.67;;;20.90;98.30;;;;;;4178145;28;20045;-69
2021/12/23 01:02:12;;;;;;;69.88;46.03;;;20.90;98.10;;;;;;4170152;28;20491;-70
2021/12/23 01:04:17;;;;;;;65.25;44.78;;;20.90;98.30;;;;;;4178656;28;20529;-69
2021/12/23 01:06:21;;;;;;;68.95;43.40;;;21.00;98.10;;;;;;4178221;28;20199;-69
2021/12/23 01:08:25;;;;;;;60.92;42.90;;;21.20;97.80;;;;;;4194158;28;20581;-67
2021/12/23 01:10:30;;;;;;;62.45;41.45;;;21.20;97.80;;;;;;4185880;28;20071;-68
2021/12/23 01:12:45;;;;;;;56.65;39.25;;;21.20;97.80;;;;;;4185407;28;20045;-68
2021/12/23 01:17:31;;;;;;;51.03;33.42;;;21.30;97.60;;;;;;4183346;28;20047;-69
2021/12/23 01:19:39;;;;;;;47.58;34.28;;;21.40;97.40;;;;;;4177544;28;20049;-69
2021/12/23 01:21:44;;;;;;;47.55;35.63;;;21.30;97.60;;;;;;4178196;28;20045;-69
2021/12/23 01:23:53;;;;;;;51.35;36.72;;;21.40;97.50;;;;;;4178197;28;20098;-69
2021/12/23 01:25:58;;;;;;;53.85;35.30;;;21.40;97.70;;;;;;4180972;28;20040;-69
2021/12/23 01:28:02;;;;;;;49.75;34.67;;;21.40;97.80;;;;;;4177590;28;20037;-68
2021/12/23 01:30:08;;;;;;;50.97;33.42;;;21.50;97.70;;;;;;4178057;28;20484;-68
2021/12/23 01:32:12;;;;;;;49.33;32.30;;;21.50;98.10;;;;;;4177384;28;20043;-68
2021/12/23 01:34:16;;;;;;;53.17;33.92;;;21.50;98.00;;;;;;4179065;28;20580;-68
2021/12/23 01:36:22;;;;;;;54.35;36.60;;;21.60;97.80;;;;;;4178683;28;20037;-68
2021/12/23 01:38:27;;;;;;;64.47;37.03;;;21.60;98.00;;;;;;4203147;28;20043;-68
2021/12/23 01:40:31;;;;;;;50.13;31.10;;;21.60;98.00;;;;;;4179880;28;20052;-68
2021/12/23 01:42:36;;;;;;;43.60;26.77;;;21.60;98.20;;;;;;4181319;28;20067;-68
2021/12/23 01:44:40;;;;;;;38.47;26.05;;;21.60;98.20;;;;;;4181237;28;20041;-69
2021/12/23 01:46:45;;;;;;;43.67;25.85;;;21.70;98.10;;;;;;4180644;28;20515;-69
2021/12/23 01:48:49;;;;;;;34.17;23.70;;;21.70;98.30;;;;;;4181043;28;20083;-69
2021/12/23 01:50:54;;;;;;;34.95;23.42;;;21.70;97.90;;;;;;4181319;28;20140;-69
2021/12/23 01:52:59;;;;;;;29.15;22.45;;;21.70;98.00;;;;;;4183244;28;20060;-69
2021/12/23 01:55:04;;;;;;;33.53;24.30;;;21.80;97.60;;;;;;4178815;28;20170;-69
2021/12/23 01:57:09;;;;;;;33.58;24.70;;;22.00;97.30;;;;;;4188378;28;20037;-69
2021/12/23 01:59:15;;;;;;;35.10;24.25;;;22.00;97.10;;;;;;4195344;28;20040;-69
2021/12/23 02:01:19;;;;;;;31.20;23.70;;;22.10;97.40;;;;;;4181216;28;20247;-69
2021/12/23 02:03:24;;;;;;;30.23;23.67;;;22.10;97.00;;;;;;4181238;28;20044;-69
2021/12/23 02:05:30;;;;;;;35.42;23.13;;;22.20;96.70;;;;;;4182699;28;20045;-69
2021/12/23 02:07:34;;;;;;;28.63;22.17;;;22.30;96.50;;;;;;4194059;28;20563;-69
2021/12/23 02:09:39;;;;;;;30.65;22.70;;;22.40;96.60;;;;;;4178109;28;20107;-69
2021/12/23 02:11:45;;;;;;;30.77;22.25;;;22.30;96.20;;;;;;4180822;28;20067;-68
2021/12/23 02:13:50;;;;;;;32.42;21.70;;;22.30;96.10;;;;;;4184671;28;20049;-68
2021/12/23 02:15:55;;;;;;;26.35;20.25;;;22.40;95.90;;;;;;4182754;28;20132;-68
2021/12/23 02:18:00;;;;;;;30.02;20.30;;;22.40;95.80;;;;;;4178934;28;20120;-68
2021/12/23 02:20:06;;;;;;;30.23;20.60;;;22.50;95.80;;;;;;4179959;28;20044;-69
2021/12/23 02:22:11;;;;;;;28.48;20.25;;;22.50;95.70;;;;;;4183310;28;20049;-68
2021/12/23 02:24:16;;;;;;;26.98;19.70;;;22.60;95.50;;;;;;4183182;28;20053;-68
2021/12/23 02:26:21;;;;;;;27.48;20.80;;;22.60;95.40;;;;;;4179772;28;20056;-68
2021/12/23 02:28:27;;;;;;;27.55;20.20;;;22.70;95.50;;;;;;4178099;28;20128;-68
2021/12/23 02:30:31;;;;;;;26.30;19.88;;;22.70;95.40;;;;;;4178333;28;20083;-69
2021/12/23 02:32:36;;;;;;;27.88;20.15;;;22.80;95.40;;;;;;4180047;28;20079;-68
2021/12/23 02:34:40;;;;;;;25.65;20.15;;;22.80;95.50;;;;;;4177987;28;20095;-68
2021/12/23 02:36:50;;;;;;;31.35;20.05;;;22.90;95.40;;;;;;4180045;28;20504;-68
2021/12/23 02:38:54;;;;;;;32.90;20.15;;;22.90;95.20;;;;;;4179033;28;20041;-68
2021/12/23 02:40:58;;;;;;;25.00;18.27;;;22.90;95.00;;;;;;4179879;28;20053;-68
2021/12/23 02:43:32;;;;;;;26.77;19.02;;;23.00;95.10;;;;;;4177515;28;20041;-69
2021/12/23 02:45:36;;;;;;;28.40;19.50;;;23.00;95.00;;;;;;4178999;28;20100;-69
2021/12/23 02:47:41;;;;;;;29.38;19.17;;;23.00;94.80;;;;;;4180143;28;20049;-69
2021/12/23 02:49:45;;;;;;;31.10;19.20;;;23.10;94.80;;;;;;4189433;28;20154;-69
2021/12/23 02:51:50;;;;;;;26.23;19.08;;;23.20;95.00;;;;;;4188424;28;20106;-69
2021/12/23 02:53:54;;;;;;;28.10;20.05;;;23.20;94.90;;;;;;4188395;28;20057;-68
2021/12/23 02:55:59;;;;;;;25.17;19.73;;;23.20;94.60;;;;;;4181919;28;20068;-68
2021/12/23 02:58:04;;;;;;;23.50;17.42;;;23.20;94.60;;;;;;4185367;28;20051;-69
2021/12/23 03:00:09;;;;;;;22.98;18.80;;;23.30;94.60;;;;;;4185417;28;20451;-68
2021/12/23 03:02:13;;;;;;;24.55;17.25;;;23.30;94.40;;;;;;4180211;28;20495;-68
2021/12/23 03:04:18;;;;;;;21.50;16.75;;;23.40;94.20;;;;;;4190494;28;20546;-68
2021/12/23 03:06:25;;;;;;;25.67;17.63;;;23.40;94.00;;;;;;4186904;28;20064;-69
2021/12/23 03:08:34;;;;;;;25.50;17.95;;;23.40;93.90;;;;;;4180136;28;20124;-68
2021/12/23 03:10:40;;;;;;;24.35;17.65;;;23.50;94.20;;;;;;4183277;28;20507;-69
2021/12/23 03:12:44;;;;;;;29.48;18.17;;;23.60;94.00;;;;;;4194110;28;20041;-69
2021/12/23 03:14:49;;;;;;;21.80;17.33;;;23.60;94.00;;;;;;4187573;28;20057;-69
2021/12/23 03:16:55;;;;;;;22.95;17.67;;;23.60;93.40;;;;;;4188212;28;20128;-68
2021/12/23 03:19:00;;;;;;;23.42;17.42;;;23.70;93.40;;;;;;4181421;28;20087;-69
2021/12/23 03:21:05;;;;;;;25.85;17.67;;;23.70;93.30;;;;;;4185614;28;20045;-69
2021/12/23 03:23:10;;;;;;;25.27;16.60;;;23.70;93.30;;;;;;4179668;28;20045;-68
2021/12/23 03:25:14;;;;;;;28.83;16.67;;;23.70;93.30;;;;;;4184487;28;20055;-69
2021/12/23 03:27:18;;;;;;;27.83;17.25;;;23.80;93.70;;;;;;4185425;28;20039;-69
2021/12/23 03:29:23;;;;;;;25.15;17.15;;;23.90;93.50;;;;;;4187352;28;20048;-68
2021/12/23 03:31:27;;;;;;;28.25;18.15;;;23.90;93.40;;;;;;4185897;28;20045;-68
2021/12/23 03:33:32;;;;;;;23.00;16.38;;;23.90;93.30;;;;;;4177001;28;20506;-68
2021/12/23 03:35:37;;;;;;;24.15;15.38;;;24.00;93.30;;;;;;4183303;28;20053;-68
2021/12/23 03:37:41;;;;;;;20.73;15.52;;;24.00;93.00;;;;;;4179077;28;20565;-68
2021/12/23 03:39:50;;;;;;;32.22;17.10;;;24.10;93.10;;;;;;4184771;28;20672;-67
2021/12/23 03:41:55;;;;;;;25.50;16.75;;;24.10;92.90;;;;;;4190981;28;20060;-67
2021/12/23 03:43:59;;;;;;;26.73;17.38;;;24.10;92.70;;;;;;4168679;28;20060;-66
2021/12/23 03:46:04;;;;;;;24.95;17.33;;;24.30;92.70;;;;;;4184907;28;20410;-65
2021/12/23 03:48:09;;;;;;;19.05;15.25;;;24.30;92.60;;;;;;4176741;28;20522;-65
2021/12/23 03:50:13;;;;;;;21.80;14.07;;;24.40;92.30;;;;;;4185597;28;20300;-66
2021/12/23 03:52:18;;;;;;;20.52;14.55;;;24.40;92.10;;;;;;4193381;28;20517;-65
2021/12/23 03:54:22;;;;;;;18.55;13.32;;;24.40;91.80;;;;;;4181652;28;20033;-65
2021/12/23 03:56:27;;;;;;;19.75;14.10;;;24.40;91.50;;;;;;4183785;28;20045;-65
2021/12/23 03:58:31;;;;;;;17.52;13.48;;;24.40;91.70;;;;;;4177439;28;20182;-66
2021/12/23 04:00:36;;;;;;;20.33;15.02;;;24.50;92.20;;;;;;4185222;28;20136;-66
2021/12/23 04:02:41;;;;;;;22.48;16.20;;;24.60;91.80;;;;;;4185467;28;20059;-65
2021/12/23 04:04:45;;;;;;;31.52;20.77;;;24.70;91.20;;;;;;4188864;28;20135;-67
2021/12/23 04:06:51;;;;;;;35.90;25.10;;;24.80;91.20;;;;;;4175573;28;20423;-65
2021/12/23 04:08:56;;;;;;;34.60;23.60;;;24.80;91.20;;;;;;4176041;28;20049;-66
2021/12/23 04:11:01;;;;;;;36.08;23.85;;;24.80;90.80;;;;;;4176077;28;20037;-66
2021/12/23 04:13:06;;;;;;;30.33;21.73;;;24.90;91.00;;;;;;4175662;28;20107;-68
2021/12/23 04:15:11;;;;;;;41.83;27.92;;;24.90;91.10;;;;;;4175570;28;20099;-66
2021/12/23 04:17:15;;;;;;;53.42;33.58;;;24.90;91.10;;;;;;4178267;28;20037;-68
2021/12/23 04:19:19;;;;;;;56.67;38.53;;;25.00;91.10;;;;;;4174966;28;20553;-65
2021/12/23 04:21:23;;;;;;;56.22;39.38;;;25.10;90.40;;;;;;4175797;28;20045;-66
2021/12/23 04:23:29;;;;;;;47.58;35.08;;;25.10;90.30;;;;;;4178084;28;20068;-66
2021/12/23 04:25:34;;;;;;;53.00;32.90;;;25.10;90.40;;;;;;4175751;28;20041;-66
2021/12/23 04:27:38;;;;;;;41.00;29.52;;;25.10;90.20;;;;;;4176536;28;20056;-67
2021/12/23 04:29:43;;;;;;;41.13;28.55;;;25.10;90.10;;;;;;4176834;28;20559;-67
2021/12/23 04:31:47;;;;;;;39.35;26.80;;;25.10;90.70;;;;;;4177147;28;20044;-67
2021/12/23 04:33:53;;;;;;;36.53;25.13;;;25.10;90.20;;;;;;4180194;28;20060;-67
2021/12/23 04:35:57;;;;;;;29.10;18.00;;;25.30;90.00;;;;;;4183776;28;20053;-67
2021/12/23 04:38:01;;;;;;;26.48;17.05;;;25.40;88.30;;;;;;4188741;28;20052;-67
2021/12/23 04:40:08;;;;;;;25.50;17.23;;;25.30;88.20;;;;;;4175779;28;20376;-67
2021/12/23 04:42:12;;;;;;;28.92;17.27;;;25.30;88.50;;;;;;4171902;28;20048;-68
2021/12/23 04:44:16;;;;;;;21.92;14.93;;;25.40;89.70;;;;;;4187483;28;20098;-66
2021/12/23 04:46:21;;;;;;;19.20;14.25;;;25.70;88.20;;;;;;4189599;28;20049;-66
2021/12/23 04:48:26;;;;;;;20.58;14.43;;;25.70;88.50;;;;;;4184092;28;20451;-67
2021/12/23 04:50:30;;;;;;;18.73;14.35;;;25.80;87.00;;;;;;4175981;28;20052;-65
2021/12/23 04:52:35;;;;;;;21.70;14.55;;;25.90;86.10;;;;;;4178890;28;20044;-67
2021/12/23 04:54:39;;;;;;;20.83;15.65;;;25.80;86.30;;;;;;4187000;28;20056;-66
2021/12/23 04:56:44;;;;;;;20.02;15.50;;;25.80;86.40;;;;;;4183397;28;20493;-66
2021/12/23 04:58:49;;;;;;;19.38;14.85;;;25.70;87.80;;;;;;4184980;28;20048;-67
2021/12/23 05:00:54;;;;;;;20.05;14.80;;;25.80;87.90;;;;;;4190669;28;20049;-67
2021/12/23 05:02:58;;;;;;;20.45;14.95;;;25.70;87.90;;;;;;4177227;28;20056;-66
2021/12/23 05:05:03;;;;;;;24.83;14.80;;;25.80;87.80;;;;;;4182967;28;20087;-66
2021/12/23 05:07:08;;;;;;;19.48;14.77;;;25.80;87.30;;;;;;4178725;28;20107;-67
2021/12/23 05:09:13;;;;;;;20.02;12.88;;;25.80;86.30;;;;;;4190948;28;20471;-67
2021/12/23 05:11:17;;;;;;;15.43;13.05;;;26.00;83.80;;;;;;4175802;28;20183;-67
2021/12/23 05:13:22;;;;;;;16.60;12.68;;;26.00;83.90;;;;;;4192295;28;20048;-73
2021/12/23 05:15:27;;;;;;;17.35;12.30;;;26.10;85.00;;;;;;4184413;28;20164;-66
2021/12/23 05:17:31;;;;;;;21.67;13.05;;;26.20;83.50;;;;;;4192396;28;20072;-66
2021/12/23 05:19:35;;;;;;;16.92;12.45;;;26.20;83.20;;;;;;4177648;28;20531;-67
2021/12/23 05:21:40;;;;;;;19.95;12.55;;;26.10;83.20;;;;;;4177182;28;20080;-65
2021/12/23 05:23:44;;;;;;;18.42;12.30;;;26.20;84.40;;;;;;4177901;28;20048;-66
2021/12/23 05:25:49;;;;;;;15.98;11.77;;;26.40;82.40;;;;;;4175380;28;20551;-67
2021/12/23 05:27:54;;;;;;;14.48;11.40;;;26.30;82.70;;;;;;4177050;28;20045;-67
2021/12/23 05:29:58;;;;;;;14.40;11.55;;;26.20;83.60;;;;;;4177403;28;20045;-67
2021/12/23 05:32:03;;;;;;;15.35;11.63;;;26.30;83.00;;;;;;4176797;28;20268;-68
2021/12/23 05:34:09;;;;;;;15.45;11.98;;;26.30;83.40;;;;;;4179300;28;20402;-67
2021/12/23 05:36:15;;;;;;;18.75;11.93;;;26.40;83.80;;;;;;4177241;28;20462;-65
2021/12/23 05:38:19;;;;;;;17.23;12.02;;;26.50;83.40;;;;;;4183273;28;20048;-66
2021/12/23 05:40:25;;;;;;;16.85;11.35;;;26.50;82.00;;;;;;4178888;28;20519;-67
2021/12/23 05:42:29;;;;;;;16.88;11.63;;;26.60;82.60;;;;;;4179052;28;20558;-68
2021/12/23 05:44:35;;;;;;;20.02;12.73;;;26.60;82.10;;;;;;4177308;28;20087;-66
2021/12/23 05:46:40;;;;;;;15.63;11.98;;;26.60;82.90;;;;;;4179180;28;20052;-67
2021/12/23 05:48:45;;;;;;;14.48;11.70;;;26.60;82.60;;;;;;4176934;28;20127;-67
2021/12/23 05:50:49;;;;;;;19.23;11.98;;;26.60;82.20;;;;;;4178130;28;20676;-67
2021/12/23 05:52:54;;;;;;;15.13;11.43;;;26.60;82.40;;;;;;4177694;28;20098;-66
2021/12/23 05:54:58;;;;;;;14.80;10.43;;;26.70;80.40;;;;;;4177931;28;20107;-67
2021/12/23 05:57:03;;;;;;;17.17;10.20;;;26.80;79.00;;;;;;4177335;28;20045;-67
2021/12/23 05:59:07;;;;;;;15.73;10.20;;;26.80;80.20;;;;;;4179701;28;20156;-67
2021/12/23 06:01:12;;;;;;;14.18;10.70;;;26.80;80.70;;;;;;4176811;28;20036;-67
2021/12/23 06:03:17;;;;;;;15.48;10.50;;;26.80;80.90;;;;;;4177401;28;20052;-67
2021/12/23 06:05:22;;;;;;;13.10;9.75;;;26.90;79.80;;;;;;4179857;28;20037;-67
2021/12/23 06:07:26;;;;;;;11.48;9.85;;;27.00;77.00;;;;;;4177137;28;20045;-69
2021/12/23 06:09:30;;;;;;;15.23;10.50;;;27.00;77.10;;;;;;4177649;28;20110;-68
2021/12/23 06:11:35;;;;;;;11.75;9.80;;;27.00;77.20;;;;;;4172201;28;20610;-68
2021/12/23 06:13:39;;;;;;;15.00;10.13;;;26.90;77.10;;;;;;4176679;28;20056;-66
2021/12/23 06:15:44;;;;;;;11.90;10.18;;;27.00;77.50;;;;;;4174846;28;20434;-66
2021/12/23 06:17:48;;;;;;;13.40;10.15;;;27.00;77.20;;;;;;4172987;28;20048;-67
2021/12/23 06:19:53;;;;;;;13.98;10.20;;;27.00;77.50;;;;;;4176481;28;20182;-66
2021/12/23 06:21:58;;;;;;;18.33;10.40;;;27.00;77.30;;;;;;4177240;28;20561;-67
2021/12/23 06:24:03;;;;;;;17.38;10.85;;;27.20;76.80;;;;;;4175539;28;20559;-67
2021/12/23 06:26:08;;;;;;;12.48;10.30;;;27.20;77.50;;;;;;4172612;28;20360;-67
2021/12/23 06:28:12;;;;;;;12.95;9.90;;;27.30;77.50;;;;;;4175758;28;20041;-67
2021/12/23 06:30:18;;;;;;;16.55;9.98;;;27.30;77.70;;;;;;4175876;28;20044;-67
2021/12/23 06:32:24;;;;;;;13.35;10.45;;;27.30;78.10;;;;;;4176349;28;20646;-68
2021/12/23 06:34:28;;;;;;;12.90;10.18;;;27.20;78.00;;;;;;4176056;28;20494;-68
2021/12/23 06:36:32;;;;;;;15.63;10.20;;;27.30;77.00;;;;;;4175219;28;20057;-68
2021/12/23 06:38:37;;;;;;;14.70;10.07;;;27.30;75.30;;;;;;4177974;28;20063;-67
2021/12/23 06:40:42;;;;;;;12.95;9.73;;;27.30;76.10;;;;;;4178235;28;20051;-67
2021/12/23 06:42:46;;;;;;;12.20;9.18;;;27.30;74.90;;;;;;4175808;28;20382;-68
2021/12/23 06:44:50;;;;;;;13.23;9.18;;;27.30;75.30;;;;;;4176740;28;20434;-67
2021/12/23 06:46:55;;;;;;;13.30;8.90;;;27.30;75.40;;;;;;4178547;28;20044;-68
2021/12/23 06:48:59;;;;;;;12.48;9.40;;;27.30;75.70;;;;;;4177426;28;20494;-67
2021/12/23 06:51:04;;;;;;;12.77;9.15;;;27.30;76.00;;;;;;4174801;28;20052;-67
2021/12/23 06:53:08;;;;;;;11.80;8.55;;;27.50;74.80;;;;;;4176665;28;20139;-67
2021/12/23 06:55:14;;;;;;;10.45;8.20;;;27.70;74.50;;;;;;4177357;28;20569;-68
2021/12/23 06:57:19;;;;;;;14.25;8.63;;;27.70;72.90;;;;;;4176402;28;20075;-67
2021/12/23 06:59:24;;;;;;;12.38;8.95;;;27.80;72.30;;;;;;4175474;28;20161;-67
2021/12/23 07:01:29;;;;;;;16.83;12.60;;;27.90;71.90;;;;;;4178238;28;20596;-67
2021/12/23 07:06:05;;;;;;;14.23;10.60;;;27.90;73.00;;;;;;4176561;28;20053;-67
2021/12/23 07:08:25;;;;;;;17.85;10.77;;;27.90;74.00;;;;;;4177193;28;20083;-67
2021/12/23 07:10:31;;;;;;;14.10;9.38;;;27.90;71.90;;;;;;4176426;28;20106;-68
2021/12/23 07:12:35;;;;;;;12.77;8.82;;;27.80;72.10;;;;;;4175340;28;20131;-68
2021/12/23 07:14:40;;;;;;;11.98;7.82;;;27.70;72.10;;;;;;4176228;28;20073;-68
2021/12/23 07:16:44;;;;;;;13.10;8.48;;;27.70;72.20;;;;;;4175597;28;20053;-68
2021/12/23 07:18:49;;;;;;;13.15;8.43;;;27.80;72.70;;;;;;4177958;28;20041;-68
2021/12/23 07:20:55;;;;;;;12.98;8.45;;;27.70;73.20;;;;;;4177009;28;20029;-68
2021/12/23 07:23:00;;;;;;;13.32;8.80;;;27.80;71.70;;;;;;4176014;28;20075;-68
2021/12/23 07:25:05;;;;;;;13.43;8.50;;;27.70;72.80;;;;;;4176004;28;20424;-68
2021/12/23 07:27:10;;;;;;;14.07;8.10;;;27.60;73.50;;;;;;4176134;28;20419;-68
2021/12/23 07:29:15;;;;;;;15.43;9.07;;;27.70;74.20;;;;;;4175525;28;20055;-68
2021/12/23 07:31:19;;;;;;;13.85;8.65;;;27.70;75.30;;;;;;4178191;28;20589;-67
2021/12/23 07:33:24;;;;;;;12.27;8.85;;;27.80;75.60;;;;;;4167404;28;20083;-68
2021/12/23 07:35:28;;;;;;;11.38;9.10;;;27.80;75.10;;;;;;4168049;28;20041;-68
2021/12/23 07:37:33;;;;;;;13.88;9.60;;;27.90;74.20;;;;;;4176490;28;20044;-65
2021/12/23 07:39:38;;;;;;;12.30;9.57;;;27.90;74.00;;;;;;4175675;28;20534;-66
2021/12/23 07:42:03;;;;;;;13.48;9.38;;;27.80;73.90;;;;;;4177241;28;20095;-66
2021/12/23 07:44:20;;;;;;;12.85;9.63;;;27.80;74.20;;;;;;4178084;28;20056;-66
2021/12/23 07:46:25;;;;;;;13.75;10.70;;;27.90;73.40;;;;;;4171655;28;20671;-66
2021/12/23 07:48:33;;;;;;;14.07;11.25;;;27.90;73.50;;;;;;4175284;28;20052;-67
2021/12/23 07:50:38;;;;;;;14.93;9.63;;;27.90;73.30;;;;;;4175144;28;20045;-66
2021/12/23 07:52:42;;;;;;;13.57;9.30;;;27.90;73.10;;;;;;4182389;28;20040;-65
2021/12/23 07:54:47;;;;;;;22.13;10.57;;;27.90;72.90;;;;;;4188789;28;20048;-65
2021/12/23 07:56:51;;;;;;;17.30;12.55;;;28.00;72.50;;;;;;4169314;28;20033;-67
2021/12/23 07:58:56;;;;;;;15.68;10.55;;;28.00;72.50;;;;;;4175897;28;20047;-66
2021/12/23 08:01:00;;;;;;;13.35;10.55;;;27.90;72.10;;;;;;4175532;28;20087;-65
2021/12/23 08:03:05;;;;;;;14.35;10.55;;;27.90;72.50;;;;;;4174772;28;20395;-65
2021/12/23 08:05:10;;;;;;;13.35;9.85;;;27.90;72.90;;;;;;4193071;28;20048;-65
2021/12/23 08:07:14;;;;;;;12.15;9.57;;;27.90;73.50;;;;;;4181166;28;20519;-63
2021/12/23 08:09:22;;;;;;;13.70;9.70;;;27.90;73.90;;;;;;4179142;28;20460;-67
2021/12/23 08:11:26;;;;;;;12.10;9.38;;;27.90;74.30;;;;;;4192703;28;20059;-68
2021/12/23 08:13:31;;;;;;;15.18;9.25;;;28.00;73.40;;;;;;4181318;28;20064;-68
2021/12/23 08:15:35;;;;;;;14.27;9.45;;;27.90;72.70;;;;;;4178830;28;20086;-68
2021/12/23 08:17:40;;;;;;;13.85;9.90;;;28.00;73.30;;;;;;4181105;28;20049;-68
2021/12/23 08:19:45;;;;;;;19.17;9.80;;;28.00;73.50;;;;;;4183107;28;20602;-67
2021/12/23 08:21:51;;;;;;;13.52;9.70;;;28.00;73.70;;;;;;4180014;28;20147;-67
2021/12/23 08:23:55;;;;;;;13.77;9.50;;;27.90;73.80;;;;;;4175844;28;20164;-67
2021/12/23 08:26:03;;;;;;;15.98;10.95;;;28.00;73.30;;;;;;4177724;28;20068;-67
2021/12/23 08:28:07;;;;;;;17.75;11.38;;;28.10;72.20;;;;;;4177374;28;20110;-68
2021/12/23 08:30:14;;;;;;;14.32;10.70;;;28.10;72.70;;;;;;4176259;28;20048;-67
2021/12/23 08:32:20;;;;;;;16.58;10.40;;;28.10;72.30;;;;;;4175999;28;20052;-67
2021/12/23 08:34:24;;;;;;;14.10;10.65;;;28.00;72.40;;;;;;4178220;28;20065;-67
2021/12/23 08:36:29;;;;;;;15.60;10.07;;;28.00;72.70;;;;;;4174281;28;20048;-68
2021/12/23 08:38:34;;;;;;;12.95;9.80;;;28.00;73.30;;;;;;4179906;28;20049;-67
2021/12/23 08:40:38;;;;;;;11.75;9.05;;;28.00;73.40;;;;;;4183718;28;20525;-66
2021/12/23 08:42:45;;;;;;;14.77;9.35;;;28.10;72.10;;;;;;4184221;28;20056;-66
2021/12/23 08:44:49;;;;;;;12.85;8.82;;;28.10;72.40;;;;;;4188293;28;20041;-66
2021/12/23 08:46:55;;;;;;;13.18;9.35;;;28.10;72.50;;;;;;4184439;28;20076;-66
2021/12/23 08:48:59;;;;;;;16.88;9.02;;;28.00;72.40;;;;;;4180229;28;20536;-68
2021/12/23 08:51:04;;;;;;;11.63;8.63;;;28.00;72.40;;;;;;4175465;28;20410;-68
2021/12/23 08:53:11;;;;;;;13.75;8.80;;;27.90;72.70;;;;;;4176510;28;20086;-68
2021/12/23 08:55:16;;;;;;;11.23;9.02;;;28.00;72.80;;;;;;4183147;28;20067;-68
2021/12/23 08:57:21;;;;;;;12.02;8.05;;;28.00;72.50;;;;;;4176229;28;20130;-67
2021/12/23 08:59:27;;;;;;;11.07;8.63;;;28.10;71.80;;;;;;4175698;28;20052;-67
2021/12/23 09:01:31;;;;;;;11.13;8.73;;;28.10;72.00;;;;;;4172751;28;20059;-73
2021/12/23 09:03:36;;;;;;;18.30;8.80;;;28.00;72.00;;;;;;4172902;28;20084;-69
2021/12/23 09:05:41;;;;;;;11.63;8.75;;;28.00;72.10;;;;;;4179419;28;20129;-68
2021/12/23 09:07:46;;;;;;;13.50;8.57;;;28.10;71.90;;;;;;4158025;28;20435;-68
2021/12/23 09:09:51;;;;;;;12.50;9.02;;;28.10;71.80;;;;;;4174133;28;20041;-69
2021/12/23 09:11:55;;;;;;;16.35;9.60;;;28.00;71.40;;;;;;4179633;28;20992;-69
2021/12/23 09:14:00;;;;;;;12.77;9.45;;;27.90;70.70;;;;;;4175291;28;20044;-69
2021/12/23 09:16:04;;;;;;;12.10;9.57;;;27.90;71.20;;;;;;4175752;28;20037;-69
2021/12/23 09:18:09;;;;;;;16.83;9.30;;;27.90;71.30;;;;;;4175321;28;20084;-67
2021/12/23 09:20:15;;;;;;;14.73;9.02;;;27.90;71.30;;;;;;4175230;28;20111;-67
2021/12/23 09:22:24;;;;;;;11.82;8.90;;;27.90;71.00;;;;;;4177713;28;20087;-68
2021/12/23 09:24:29;;;;;;;14.80;10.20;;;27.90;70.60;;;;;;4181957;28;20084;-67
2021/12/23 09:26:41;;;;;;;14.27;10.00;;;27.80;71.00;;;;;;4175463;28;20049;-67
2021/12/23 09:33:13;;;;;;;14.82;9.90;;;27.80;71.80;;;;;;4176553;28;20033;-68
2021/12/23 09:35:29;;;;;;;13.65;10.10;;;27.80;71.80;;;;;;4174881;28;20111;-69
2021/12/23 09:37:36;;;;;;;32.35;10.50;;;27.90;71.60;;;;;;4176526;28;20056;-64
2021/12/23 09:39:40;;;;;;;25.48;10.38;;;27.90;71.80;;;;;;4178259;28;20600;-69
2021/12/23 09:41:46;;;;;;;18.90;9.68;;;27.80;72.20;;;;;;4175529;28;20228;-65
2021/12/23 09:43:51;;;;;;;23.35;10.85;;;27.90;72.70;;;;;;4175178;28;20099;-66
2021/12/23 09:45:55;;;;;;;16.52;9.90;;;27.90;72.80;;;;;;4176886;28;20044;-65
2021/12/23 09:48:02;;;;;;;14.90;10.07;;;27.90;73.00;;;;;;4198690;28;20131;-64
2021/12/23 09:50:09;;;;;;;18.73;9.68;;;27.90;73.20;;;;;;4173798;28;20128;-64
2021/12/23 09:52:13;;;;;;;13.32;9.38;;;27.90;73.10;;;;;;4175404;28;20064;-64
2021/12/23 09:54:18;;;;;;;12.75;9.30;;;27.80;73.20;;;;;;4175344;28;20040;-65
2021/12/23 09:56:22;;;;;;;18.38;9.55;;;27.80;73.30;;;;;;4173890;28;20057;-64
2021/12/23 09:58:27;;;;;;;16.63;9.60;;;27.80;73.40;;;;;;4175513;28;20037;-65
2021/12/23 10:00:32;;;;;;;12.18;9.75;;;27.80;73.60;;;;;;4180797;28;20037;-64
2021/12/23 10:02:40;;;;;;;15.48;9.63;;;27.80;73.70;;;;;;4178325;28;20616;-63
2021/12/23 10:04:50;;;;;;;16.17;9.25;;;27.80;73.70;;;;;;4177569;28;20107;-64
2021/12/23 10:06:57;;;;;;;13.27;10.07;;;27.70;73.60;;;;;;4177528;28;20102;-64
2021/12/23 10:09:03;;;;;;;12.90;8.95;;;27.70;73.80;;;;;;4177678;28;20041;-64
2021/12/23 10:11:24;;;;;;;16.20;9.80;;;27.70;74.10;;;;;;4175573;28;20045;-64
2021/12/23 10:32:24;;;;;;;52.03;14.50;;;27.50;77.90;;;;;;4174922;28;20060;-67
2021/12/23 10:38:53;;;;;;;35.30;18.48;;;27.30;79.50;;;;;;4178015;28;20045;-68
2021/12/23 10:41:00;;;;;;;38.78;17.67;;;27.30;79.80;;;;;;4177701;28;20338;-69
2021/12/23 10:43:06;;;;;;;35.97;18.50;;;27.30;80.00;;;;;;4178705;28;20061;-68
2021/12/23 10:45:12;;;;;;;35.75;18.50;;;27.30;80.20;;;;;;4174600;28;20049;-68
2021/12/23 10:47:34;;;;;;;48.45;19.38;;;27.20;80.30;;;;;;4204140;28;20480;-69
2021/12/23 10:49:43;;;;;;;49.90;19.10;;;27.20;80.50;;;;;;4176039;28;20349;-68
2021/12/23 10:51:58;;;;;;;50.28;18.70;;;27.20;80.70;;;;;;4177976;28;20040;-68
2021/12/23 10:54:21;;;;;;;61.80;24.95;;;27.10;80.90;;;;;;4177988;28;20037;-68
2021/12/23 10:59:01;;;;;;;49.53;25.27;;;27.00;81.80;;;;;;4177132;28;20052;-67
2021/12/23 11:01:07;;;;;;;49.20;25.60;;;26.90;82.20;;;;;;4175737;28;20106;-68
2021/12/23 11:03:30;;;;;;;48.20;25.58;;;26.90;82.30;;;;;;4176810;28;20044;-68
2021/12/23 11:05:40;;;;;;;48.88;25.42;;;26.90;82.50;;;;;;4175523;28;20041;-69
2021/12/23 11:07:55;;;;;;;46.08;24.85;;;26.90;82.70;;;;;;4180879;28;20059;-69
2021/12/23 11:40:08;;;;;;;179.63;109.03;;;26.50;84.90;;;;;;4177168;28;20071;-69
2021/12/23 11:42:24;;;;;;;189.95;105.32;;;26.40;85.10;;;;;;4175566;28;20438;-69
2021/12/23 11:44:31;;;;;;;173.95;103.30;;;26.40;85.50;;;;;;4178310;28;20049;-69
2021/12/23 11:46:45;;;;;;;189.50;114.25;;;26.40;86.30;;;;;;4176655;28;20072;-67
2021/12/23 11:48:53;;;;;;;164.65;96.22;;;26.30;85.70;;;;;;4177019;28;20114;-69
2021/12/23 11:51:15;;;;;;;139.18;83.38;;;26.30;85.90;;;;;;4176533;28;20519;-68